Glen Mary, Tennessee
Current Conditions -  °F | °C
As of 7:16 AM on Tuesday 27 Jan 2015 (Local Time) from KOQT Reporting Station
Light Snow Light Snow  
Wind Chill: 32°   Ceiling: 2900
Heat Index: 32°   Visibility: 4mi
Dew Point: 30°   Wind: 0mph
Humidity: 92%   Direction: NA
Pressure: 29.92"   Gusts: NA
Location:  36.3261°N, 84.5712°W
Report Text: KOQT 271216Z AUTO 00000KT 4SM -SN BR OVC029 00/M01 A2992 RMK AO2 P0000 T00001011
Loading
Personal Weather Stations






























Interactive Weather Map New forecast layout! Learn more

10-Day Weather Forecast

Advertisements
Track Severe Weather on mobile